DAUEDAAT

Guest
Details From DAUE - EL GOLEA
To DAAT - TAMANRASSET
Flight Number -
Tags generated
Created
Modified
Stats Distance 487 nm / 902 km
Max Altitude 23,500 ft / 7,163 m
Waypoints 5
Social Downloads 0
Likes 0
Share VATSIM

Download

Looking for another format? Having issues loading an existing format? Contact us
Advertisement - Login to hide

Notes

Basic altitude profile: - Ascent Rate: 2500ft/min - Ascent Speed: 250kts - Cruise Altitude: 35000ft - Cruise Speed: 420kts - Descent Rate: 1500ft/min - Descent Speed: 250kts Options: - Use NATs: yes - Use PACOTS: yes - Use low airways: yes - Use high airways: yes

Route

DAUE MNA A604 TMS DAAT

ID Type Via Altitude Latitude Longitude Leg Dist Tot Dist Heading (true) Name
O DAUE APT - 0 ft / 0 m 30.57729˚ 2.86424˚ - 0 nm - EL GOLEA
MNA VOR - 400 ft / 122 m 30.55861˚ 2.86167˚ 1 nm 1 nm 187° / 187° EL GOLEA VOR-DME
SIHAR FIX A604 (AWY-LO) 23,500 ft / 7,163 m 28.50000˚ 3.57472˚ 129 nm 130 nm 163° / 163° -
TMS VOR A604 (AWY-LO) 9,500 ft / 2,896 m 22.84278˚ 5.46472˚ 354 nm 485 nm 163° / 164° TAMANRASSET VOR-DME
O DAAT APT - 0 ft / 0 m 22.81038˚ 5.44440˚ 2 nm 487 nm 210° / 210° TAMANRASSET

Altitude Profile

Advertisement - Login to hide

Weather


0- 5 10 15 20 25 30 35+ Temperature / ° C

Clouds and Precipitation
Forecast for 2017-12-16 00:00 UTC. Updated 7 minutes ago

Ground ~20,000 ft ~40,000 ft Winds

DAUE

Details ICAO DAUE (ELG)
Name EL GOLEA
Region Algeria
Timezone Africa/Algiers (UTC+1.0)
Stats Elevation 1,306 ft / 398 m (AMSL)
Location 30.577292° 2.864236°
Runways 2
Magnetic Variation 0.735° E

METAR

DAUE 152100Z 32004KT CAVOK 10/08 Q1016

Decode

TAF

Not found

Departure Runways

ID Width Length Bearing (true) Bearing (mag) Surface Threshold Offset Overrun Length
10 148 ft / 45 m 5,887 ft / 1,794 m 101.92° 101.19° Asphalt 0 ft / 0 m 0 ft / 0 m
18 148 ft / 45 m 9,833 ft / 2,997 m 179.49° 178.76° Asphalt 0 ft / 0 m 350 ft / 107 m
28 148 ft / 45 m 5,887 ft / 1,794 m 281.93° 281.20° Asphalt 0 ft / 0 m 0 ft / 0 m
36 148 ft / 45 m 9,833 ft / 2,997 m 359.49° 358.76° Asphalt 0 ft / 0 m 0 ft / 0 m

DAAT

Details ICAO DAAT (TMR)
Name TAMANRASSET
Region Algeria
Timezone Africa/Algiers (UTC+1.0)
Stats Elevation 4,518 ft / 1,377 m (AMSL)
Location 22.810384° 5.444403°
Runways 2
Magnetic Variation 0.601° E

METAR

DAAT 152100Z 12007KT 9999 SCT046 SCT100 15/04 Q1023

Decode

TAF

TAF DAAT 151700Z 1518/1618 16015KT 9999 SCT046 SCT100 PROB30 TEMPO 1518/1522 FEW040TCU BECMG 1519/1522 06010KT BECMG 1609/1612 22010KT

Decode

Destination Runways

ID Width Length Bearing (true) Bearing (mag) Surface Threshold Offset Overrun Length
02 148 ft / 45 m 11,884 ft / 3,622 m 22.21° 21.61° Asphalt 0 ft / 0 m 0 ft / 0 m
08 148 ft / 45 m 10,169 ft / 3,099 m 81.74° 81.14° Asphalt 0 ft / 0 m 0 ft / 0 m
20 148 ft / 45 m 11,884 ft / 3,622 m 202.22° 201.62° Asphalt 0 ft / 0 m 0 ft / 0 m
26 148 ft / 45 m 10,169 ft / 3,099 m 261.75° 261.15° Asphalt 0 ft / 0 m 0 ft / 0 m

Popular Alternatives